YM Warmth — VROO5 — position and weather

sailwx.info

Track history (hours):
 
Tides and Currents Weather Stations Pressure Air Temp Water Temp Dewpoint Dewpoint Depression Visibility Wind Speed Wind Dir Waves Ship Positions

YM Warmth

Last reported at 2018-Jan-20 06:59 UTC. Time now 2018-Jan-24 03:57 UTC.
Position N 23°44' E 118°30'.

Length 368 m; draft 13.3 m.

Type: Ship (hazmat cat D). MMSI: 477948800.

Date/timePositionNaut miles runAvg speedWind from/ knotsBaromVisibWave heightAir tempDewpointWater temp
2018-Jan-20 06:59N 23°44' E 118°30'  
2018-Jan-12 14:57N 01°16' E 103°46'0 0.0
2018-Jan-12 14:30N 01°16' E 103°46'0 0.0
2018-Jan-12 13:57N 01°16' E 103°46'0 0.0
2018-Jan-12 13:27N 01°16' E 103°46'0 0.0
2018-Jan-12 12:54N 01°16' E 103°46'0 0.0
2018-Jan-12 12:30N 01°16' E 103°46'0 0.0
2018-Jan-12 11:57N 01°16' E 103°46'0 0.0
2018-Jan-12 11:30N 01°16' E 103°46'0 0.0
2018-Jan-12 10:57N 01°16' E 103°46'0 0.1
2018-Jan-12 10:30N 01°16' E 103°46'0 0.4
2018-Jan-12 10:00N 01°16' E 103°47'2 3.9
2018-Jan-12 09:30N 01°15' E 103°45'3 6.8
2018-Jan-12 09:00N 01°13' E 103°42'4 8.5
2018-Jan-12 08:30N 01°12' E 103°38'2 4.1
2018-Jan-12 08:00N 01°11' E 103°36'2 3.7
2018-Jan-12 07:30N 01°11' E 103°34'4 7.7
2018-Jan-12 07:00N 01°10' E 103°30'2 3.3
2018-Jan-12 06:30N 01°10' E 103°29'510.5
2018-Jan-12 05:59N 01°12' E 103°24'815.6
2018-Jan-12 05:30N 01°17' E 103°18'  
Track history (hours):
 
Tides and Currents Weather Stations Pressure Air Temp Water Temp Dewpoint Dewpoint Depression Visibility Wind Speed Wind Dir Waves Ship Positions

YM Warmth

Last reported at 2018-Jan-20 06:59 UTC. Time now 2018-Jan-24 03:57 UTC.
Position N 23°44' E 118°30'.

Length 368 m; draft 13.3 m.

Type: Ship (hazmat cat D). MMSI: 477948800.

Date/timePositionNaut miles runAvg speedWind from/ knotsBaromVisibWave heightAir tempDewpointWater temp
2018-Jan-20 06:59N 23°44' E 118°30'  
2018-Jan-12 14:57N 01°16' E 103°46'0 0.0
2018-Jan-12 14:30N 01°16' E 103°46'0 0.0
2018-Jan-12 13:57N 01°16' E 103°46'0 0.0
2018-Jan-12 13:27N 01°16' E 103°46'0 0.0
2018-Jan-12 12:54N 01°16' E 103°46'0 0.0
2018-Jan-12 12:30N 01°16' E 103°46'0 0.0
2018-Jan-12 11:57N 01°16' E 103°46'0 0.0
2018-Jan-12 11:30N 01°16' E 103°46'0 0.0
2018-Jan-12 10:57N 01°16' E 103°46'0 0.1
2018-Jan-12 10:30N 01°16' E 103°46'0 0.4
2018-Jan-12 10:00N 01°16' E 103°47'2 3.9
2018-Jan-12 09:30N 01°15' E 103°45'3 6.8
2018-Jan-12 09:00N 01°13' E 103°42'4 8.5
2018-Jan-12 08:30N 01°12' E 103°38'2 4.1
2018-Jan-12 08:00N 01°11' E 103°36'2 3.7
2018-Jan-12 07:30N 01°11' E 103°34'4 7.7
2018-Jan-12 07:00N 01°10' E 103°30'2 3.3
2018-Jan-12 06:30N 01°10' E 103°29'510.5
2018-Jan-12 05:59N 01°12' E 103°24'815.6
2018-Jan-12 05:30N 01°17' E 103°18'  

Dump ship's entire track history